Time;durP1;ratioP1;P1;durP2;ratioP2;P2;SDS_P1;SDS_P2;PMS_P1;PMS_P2;Temp;Humidity;BMP_temperature;BMP_pressure;BME280_temperature;BME280_humidity;BME280_pressure;Samples;Min_cycle;Max_cycle;Signal;HPM_P1;HPM_P2
2021/10/12 00:00:06;;;;;;;5.68;1.17;;;;;;;7.98;100.00;101455.81;6184024;23;20021;-86
2021/10/12 00:02:33;;;;;;;7.20;0.93;;;;;;;7.94;100.00;101457.53;6182180;23;20817;-88
2021/10/12 00:04:59;;;;;;;3.88;0.82;;;;;;;7.89;100.00;101457.44;6156213;23;20332;-88
2021/10/12 00:07:27;;;;;;;10.27;1.40;;;;;;;7.84;100.00;101463.47;6178702;23;20016;-88
2021/10/12 00:09:53;;;;;;;7.72;1.75;;;;;;;7.80;100.00;101456.44;6135354;23;20494;-88
2021/10/12 00:12:23;;;;;;;5.63;1.33;;;;;;;7.82;100.00;101454.72;6190181;23;20021;-88
2021/10/12 00:14:50;;;;;;;1.48;0.77;;;;;;;7.84;100.00;101447.81;6198510;23;20052;-89
2021/10/12 00:17:19;;;;;;;3.22;1.10;;;;;;;7.90;100.00;101445.28;6171903;23;20461;-88
2021/10/12 00:19:48;;;;;;;6.38;1.83;;;;;;;7.98;100.00;101432.34;6172178;23;20023;-88
2021/10/12 00:22:15;;;;;;;7.30;1.10;;;;;;;8.06;100.00;101430.75;6145000;23;20029;-89
2021/10/12 00:24:45;;;;;;;7.65;1.17;;;;;;;8.18;100.00;101428.31;6171085;23;20017;-87
2021/10/12 00:27:12;;;;;;;5.95;0.90;;;;;;;8.22;100.00;101430.09;6168823;23;20017;-86
2021/10/12 00:29:39;;;;;;;4.57;1.58;;;;;;;8.28;100.00;101411.06;6171918;23;20020;-88
2021/10/12 00:32:09;;;;;;;6.85;0.85;;;;;;;8.30;100.00;101406.72;6159751;23;20067;-88
2021/10/12 00:34:36;;;;;;;1.77;0.73;;;;;;;8.28;100.00;101404.09;6171102;23;20017;-88
2021/10/12 00:37:03;;;;;;;6.43;2.25;;;;;;;8.25;100.00;101398.84;6171497;23;20025;-89
2021/10/12 00:39:29;;;;;;;4.65;1.00;;;;;;;8.23;100.00;101399.69;6143430;23;20052;-87
2021/10/12 00:41:56;;;;;;;5.55;0.82;;;;;;;8.23;100.00;101394.47;6172208;23;20108;-87
2021/10/12 00:44:24;;;;;;;10.10;1.42;;;;;;;8.30;100.00;101395.41;6166865;23;20353;-88
2021/10/12 00:46:52;;;;;;;1.85;0.68;;;;;;;8.33;100.00;101396.34;6170236;23;20021;-87
2021/10/12 00:49:29;;;;;;;8.70;1.08;;;;;;;8.35;100.00;101393.75;6147558;23;20029;-87
2021/10/12 00:51:56;;;;;;;8.60;0.77;;;;;;;8.41;100.00;101394.69;6147687;23;20119;-88
2021/10/12 00:54:25;;;;;;;5.07;0.90;;;;;;;8.44;100.00;101389.50;6170053;23;20436;-87
2021/10/12 00:56:54;;;;;;;4.40;1.15;;;;;;;8.46;100.00;101381.75;6144242;23;20025;-86
2021/10/12 00:59:24;;;;;;;8.35;1.30;;;;;;;8.50;100.00;101377.41;6147336;23;20241;-88
2021/10/12 01:01:55;;;;;;;5.50;1.00;;;;;;;8.51;100.00;101371.34;6168362;23;20107;-87
2021/10/12 01:04:24;;;;;;;5.40;1.13;;;;;;;8.54;100.00;101371.34;6169383;23;20044;-87
2021/10/12 01:06:53;;;;;;;3.33;0.85;;;;;;;8.53;100.00;101367.03;6170937;23;20025;-88
2021/10/12 01:09:20;;;;;;;3.30;0.70;;;;;;;8.59;100.00;101372.28;6166736;23;20441;-85
2021/10/12 01:11:48;;;;;;;4.03;1.13;;;;;;;8.61;100.00;101365.38;6170332;23;20017;-87
2021/10/12 01:14:17;;;;;;;9.07;1.40;;;;;;;8.62;100.00;101364.50;6175228;23;20079;-87
2021/10/12 01:16:44;;;;;;;2.58;0.65;;;;;;;8.60;100.00;101364.50;6177403;23;20020;-86
2021/10/12 01:19:13;;;;;;;8.38;1.13;;;;;;;8.58;100.00;101354.91;6176159;23;20020;-86
2021/10/12 01:21:46;;;;;;;2.45;1.02;;;;;;;8.57;100.00;101356.63;6155658;23;20109;-88
2021/10/12 01:24:13;;;;;;;5.53;0.85;;;;;;;8.51;100.00;101351.31;6218635;23;20390;-88
2021/10/12 01:26:42;;;;;;;2.30;0.68;;;;;;;8.47;100.00;101352.16;6160730;23;20104;-88
2021/10/12 01:29:11;;;;;;;2.65;0.55;;;;;;;8.35;100.00;101346.78;6176912;23;20027;-87
2021/10/12 01:31:40;;;;;;;5.72;1.25;;;;;;;8.28;100.00;101340.63;6149011;23;20033;-87
2021/10/12 01:34:19;;;;;;;3.28;0.93;;;;;;;8.23;100.00;101329.25;6174097;23;20514;-88
2021/10/12 01:36:47;;;;;;;3.65;0.65;;;;;;;8.23;100.00;101324.03;6148022;23;20108;-87
2021/10/12 01:39:14;;;;;;;7.47;1.17;;;;;;;8.22;100.00;101327.50;6174369;23;20021;-88
2021/10/12 01:41:41;;;;;;;6.53;1.48;;;;;;;8.22;100.00;101320.53;6175744;23;20321;-87
2021/10/12 01:44:18;;;;;;;4.65;1.38;;;;;;;8.25;100.00;101327.53;6176011;23;20440;-88
2021/10/12 01:46:48;;;;;;;2.40;0.65;;;;;;;8.33;100.00;101311.97;6148426;23;20048;-87
2021/10/12 01:49:15;;;;;;;3.45;0.88;;;;;;;8.38;100.00;101313.78;6150319;23;20179;-87
2021/10/12 01:51:41;;;;;;;2.80;0.93;;;;;;;8.44;100.00;101303.38;6176308;23;20020;-88
2021/10/12 01:54:24;;;;;;;2.85;0.70;;;;;;;8.46;100.00;101299.97;6167917;23;20070;-88
2021/10/12 01:56:53;;;;;;;4.35;0.68;;;;;;;8.43;100.00;101295.56;6150501;23;20038;-87
2021/10/12 01:59:22;;;;;;;3.28;0.88;;;;;;;8.38;100.00;101302.44;6146360;23;20029;-88
2021/10/12 02:01:58;;;;;;;2.35;0.63;;;;;;;8.28;100.00;101293.69;6172499;23;20032;-88
2021/10/12 02:04:25;;;;;;;2.97;0.95;;;;;;;8.15;100.00;101295.25;6170922;23;20346;-88
2021/10/12 02:06:54;;;;;;;4.20;0.60;;;;;;;8.05;100.00;101286.44;6148912;23;20016;-89
2021/10/12 02:09:21;;;;;;;2.85;0.95;;;;;;;7.95;100.00;101284.59;6175696;23;20020;-87
2021/10/12 02:11:50;;;;;;;4.32;0.70;;;;;;;7.92;100.00;101285.41;6170665;23;20043;-87
2021/10/12 02:14:17;;;;;;;3.40;0.73;;;;;;;7.89;100.00;101281.94;6171708;23;20017;-88
2021/10/12 02:16:44;;;;;;;2.88;0.70;;;;;;;7.85;100.00;101283.63;6121061;23;20025;-86
2021/10/12 02:19:11;;;;;;;3.50;0.90;;;;;;;7.86;100.00;101279.25;6173526;23;20087;-88
2021/10/12 02:21:38;;;;;;;4.60;0.70;;;;;;;7.90;100.00;101276.72;6174086;23;20898;-88
2021/10/12 02:24:07;;;;;;;8.25;0.80;;;;;;;7.93;100.00;101268.94;6167933;23;20797;-87
2021/10/12 02:26:35;;;;;;;3.72;1.02;;;;;;;7.94;100.00;101270.69;6173767;23;20017;-88
2021/10/12 02:29:02;;;;;;;7.93;0.80;;;;;;;7.93;100.00;101253.28;6196895;23;20039;-88
2021/10/12 02:31:30;;;;;;;1.00;0.52;;;;;;;7.91;100.00;101246.31;6148757;23;20115;-88
2021/10/12 02:33:57;;;;;;;3.30;0.95;;;;;;;7.90;100.00;101236.72;6143388;23;20021;-88
2021/10/12 02:36:31;;;;;;;3.13;1.13;;;;;;;7.94;100.00;101238.53;6197178;23;20031;-86
2021/10/12 02:38:58;;;;;;;3.10;1.08;;;;;;;7.96;100.00;101231.59;6175600;23;20021;-88
2021/10/12 02:41:25;;;;;;;2.60;0.77;;;;;;;8.01;100.00;101224.69;6171600;23;20119;-88
2021/10/12 02:43:52;;;;;;;2.25;0.90;;;;;;;8.08;100.00;101228.25;6152888;23;20024;-87
2021/10/12 02:46:18;;;;;;;6.53;1.25;;;;;;;8.11;100.00;101225.69;6169373;23;20055;-88
2021/10/12 02:48:48;;;;;;;3.08;0.85;;;;;;;8.15;100.00;101222.25;6173546;23;20099;-88
2021/10/12 02:51:17;;;;;;;4.78;1.13;;;;;;;8.21;100.00;101217.09;6151274;23;20083;-88
2021/10/12 02:53:44;;;;;;;2.00;0.93;;;;;;;8.26;100.00;101218.00;6171526;23;20053;-87
2021/10/12 02:56:12;;;;;;;5.13;0.95;;;;;;;8.34;100.00;101206.75;6175724;23;20012;-88
2021/10/12 02:58:40;;;;;;;1.48;0.75;;;;;;;8.44;100.00;101212.06;6173923;23;20012;-87
2021/10/12 03:01:08;;;;;;;5.60;1.40;;;;;;;8.53;100.00;101221.75;6174461;23;20028;-88
2021/10/12 03:03:34;;;;;;;1.92;1.17;;;;;;;8.58;100.00;101219.19;6171561;23;20028;-87
2021/10/12 03:06:01;;;;;;;2.95;0.57;;;;;;;8.65;100.00;101215.75;6155579;23;20008;-89
2021/10/12 03:08:28;;;;;;;3.80;1.23;;;;;;;8.73;99.33;101213.22;6175619;23;20136;-88
2021/10/12 03:10:55;;;;;;;2.28;0.65;;;;;;;8.74;99.12;101207.13;6193245;23;20023;-87
2021/10/12 03:13:22;;;;;;;3.58;1.55;;;;;;;8.75;98.69;101203.66;6176925;23;20020;-87
2021/10/12 03:15:48;;;;;;;2.13;0.50;;;;;;;8.74;99.25;101191.47;6174260;23;20029;-87
2021/10/12 03:18:16;;;;;;;2.47;0.52;;;;;;;8.74;98.96;101183.66;6178079;23;20048;-88
2021/10/12 03:20:43;;;;;;;4.85;0.68;;;;;;;8.74;99.53;101186.25;6179550;23;20072;-88
2021/10/12 03:23:12;;;;;;;1.63;0.80;;;;;;;8.73;98.61;101177.53;6173511;23;20164;-86
2021/10/12 03:25:41;;;;;;;3.55;0.90;;;;;;;8.75;99.17;101172.34;6180735;23;20024;-87
2021/10/12 03:28:08;;;;;;;5.47;1.25;;;;;;;8.80;98.89;101177.59;6156427;23;20017;-87
2021/10/12 03:30:34;;;;;;;1.20;0.50;;;;;;;8.83;98.10;101161.97;6172165;23;20028;-88
2021/10/12 03:33:01;;;;;;;3.00;0.77;;;;;;;8.86;98.62;101155.00;6210339;23;20138;-89
2021/10/12 03:35:31;;;;;;;2.70;0.98;;;;;;;8.88;97.91;101155.91;6211798;23;20104;-88
2021/10/12 03:37:58;;;;;;;2.28;0.90;;;;;;;8.90;97.93;101151.56;6156839;23;20020;-87
2021/10/12 03:40:26;;;;;;;4.45;0.80;;;;;;;8.94;97.58;101148.09;6178331;23;20084;-87
2021/10/12 03:42:52;;;;;;;6.07;1.15;;;;;;;9.01;97.74;101151.63;6175209;23;20024;-88
2021/10/12 03:45:20;;;;;;;7.82;1.08;;;;;;;9.04;97.53;101145.53;6147543;23;20016;-86
2021/10/12 03:47:46;;;;;;;3.55;1.15;;;;;;;9.06;97.24;101149.91;6175585;23;20048;-88
2021/10/12 03:50:13;;;;;;;2.78;0.70;;;;;;;9.05;97.88;101139.47;6176738;23;20449;-86
2021/10/12 03:52:47;;;;;;;5.57;1.63;;;;;;;9.10;97.44;101145.59;6170162;23;20020;-88
2021/10/12 03:55:15;;;;;;;1.67;0.73;;;;;;;9.12;97.36;101145.59;6127725;23;20033;-87
2021/10/12 03:57:42;;;;;;;5.43;0.93;;;;;;;9.09;97.25;101138.59;6173569;23;20028;-88
2021/10/12 04:00:12;;;;;;;4.25;1.45;;;;;;;9.12;97.89;101133.38;6151568;23;20020;-88
2021/10/12 04:02:46;;;;;;;8.57;0.60;;;;;;;9.14;98.07;101134.28;6170563;23;20445;-87
2021/10/12 04:05:20;;;;;;;2.03;1.13;;;;;;;9.11;98.47;101129.00;6122259;23;20017;-87
2021/10/12 04:07:48;;;;;;;2.45;0.70;;;;;;;9.10;99.17;101130.78;6175487;23;20016;-87
2021/10/12 04:10:16;;;;;;;6.80;1.08;;;;;;;9.08;99.93;101121.19;6197190;23;20616;-86
2021/10/12 04:12:42;;;;;;;4.30;2.20;;;;;;;9.10;100.00;101136.00;6174289;23;20020;-88
2021/10/12 04:15:09;;;;;;;2.75;1.15;;;;;;;9.10;100.00;101120.31;6169627;23;20035;-87
2021/10/12 04:17:37;;;;;;;4.22;1.10;;;;;;;9.09;100.00;101117.72;6176165;23;20032;-87
2021/10/12 04:20:11;;;;;;;4.82;1.48;;;;;;;9.06;100.00;101115.06;6199444;23;20016;-88
2021/10/12 04:22:38;;;;;;;4.35;1.48;;;;;;;9.03;100.00;101112.44;6202227;23;20024;-87
2021/10/12 04:25:05;;;;;;;4.55;1.25;;;;;;;8.95;100.00;101117.63;6150924;23;20032;-88
2021/10/12 04:27:33;;;;;;;8.48;1.63;;;;;;;8.88;100.00;101108.03;6122348;23;20020;-87
2021/10/12 04:30:00;;;;;;;5.70;1.83;;;;;;;8.84;100.00;101109.75;6176693;23;20071;-87
2021/10/12 04:32:26;;;;;;;5.82;1.77;;;;;;;8.77;100.00;101101.00;6171038;23;20455;-88
2021/10/12 04:34:54;;;;;;;6.60;1.58;;;;;;;8.71;100.00;101103.59;6174725;23;20016;-87
2021/10/12 04:37:26;;;;;;;5.53;1.88;;;;;;;8.70;100.00;101106.19;6202506;23;20048;-87
2021/10/12 04:39:53;;;;;;;11.60;4.15;;;;;;;8.71;100.00;101102.72;6172499;23;20431;-90
2021/10/12 04:42:20;;;;;;;4.10;1.88;;;;;;;8.73;100.00;101103.59;6177354;23;20265;-86
2021/10/12 04:44:53;;;;;;;12.15;4.47;;;;;;;8.78;100.00;101094.91;6175907;23;20465;-90
2021/10/12 04:47:24;;;;;;;4.60;1.80;;;;;;;8.84;100.00;101104.53;6178277;23;20032;-90
2021/10/12 04:49:51;;;;;;;7.05;2.60;;;;;;;8.87;100.00;101099.31;6145248;23;20017;-87
2021/10/12 04:52:18;;;;;;;6.63;2.05;;;;;;;8.88;100.00;101095.84;6192205;23;20013;-88
2021/10/12 04:54:45;;;;;;;8.68;2.90;;;;;;;8.84;100.00;101095.81;6187163;23;20108;-88
2021/10/12 04:57:12;;;;;;;7.50;2.45;;;;;;;8.82;100.00;101097.56;6200615;23;20078;-86
2021/10/12 04:59:39;;;;;;;9.75;2.33;;;;;;;8.83;100.00;101099.31;6177817;23;20070;-87
2021/10/12 05:02:05;;;;;;;7.28;2.25;;;;;;;8.80;100.00;101091.44;6149048;23;20024;-86
2021/10/12 05:04:33;;;;;;;8.10;2.38;;;;;;;8.78;100.00;101091.44;6176545;23;20021;-87
2021/10/12 05:06:59;;;;;;;5.72;2.28;;;;;;;8.75;100.00;101086.22;6153470;23;20024;-86
2021/10/12 05:09:26;;;;;;;5.32;2.83;;;;;;;8.73;100.00;101082.69;6175039;23;20012;-89
2021/10/12 05:11:53;;;;;;;6.03;2.25;;;;;;;8.71;100.00;101079.22;6177166;23;20017;-87
2021/10/12 05:14:20;;;;;;;5.75;2.17;;;;;;;8.70;100.00;101065.28;6173552;23;20223;-88
2021/10/12 05:16:49;;;;;;;9.57;2.65;;;;;;;8.69;100.00;101065.28;6152142;23;20043;-88
2021/10/12 05:19:20;;;;;;;4.88;2.17;;;;;;;8.66;100.00;101071.34;6172474;23;20525;-86
2021/10/12 05:21:49;;;;;;;8.07;2.97;;;;;;;8.67;100.00;101072.22;6150818;23;20079;-88
2021/10/12 05:24:16;;;;;;;6.28;2.22;;;;;;;8.73;100.00;101069.66;6172235;23;20720;-86
2021/10/12 05:26:44;;;;;;;5.20;2.13;;;;;;;8.74;100.00;101066.19;6142076;23;20107;-87
2021/10/12 05:29:14;;;;;;;6.28;2.20;;;;;;;8.72;100.00;101057.47;6172078;23;20612;-87
2021/10/12 05:31:41;;;;;;;4.82;2.25;;;;;;;8.68;100.00;101053.97;6170162;23;20933;-87
2021/10/12 05:34:08;;;;;;;4.32;1.80;;;;;;;8.69;100.00;101060.94;6148956;23;20024;-87
2021/10/12 05:36:35;;;;;;;7.05;2.33;;;;;;;8.67;100.00;101049.63;6174886;23;20032;-87
2021/10/12 05:39:02;;;;;;;7.47;3.38;;;;;;;8.64;100.00;101056.56;6169406;23;20440;-87
2021/10/12 05:41:29;;;;;;;7.35;3.50;;;;;;;8.61;100.00;101041.75;6175833;23;20036;-87
2021/10/12 05:43:55;;;;;;;5.15;2.92;;;;;;;8.59;100.00;101048.69;6145737;23;20031;-87
2021/10/12 05:46:22;;;;;;;5.00;2.03;;;;;;;8.59;100.00;101030.41;6148506;23;20034;-87
2021/10/12 05:48:49;;;;;;;12.68;2.70;;;;;;;8.57;100.00;101037.38;6171656;23;20062;-86
2021/10/12 05:51:18;;;;;;;15.77;4.78;;;;;;;8.58;100.00;101031.31;6174224;23;20590;-86
2021/10/12 05:53:47;;;;;;;12.80;4.15;;;;;;;8.60;100.00;101034.78;6175443;23;20016;-85
2021/10/12 05:56:16;;;;;;;7.05;3.60;;;;;;;8.61;100.00;101034.78;6172442;23;20044;-87
2021/10/12 05:58:44;;;;;;;13.32;4.00;;;;;;;8.65;100.00;101034.81;6150513;23;20028;-87
2021/10/12 06:01:12;;;;;;;9.27;4.35;;;;;;;8.63;100.00;101033.94;6146871;23;20111;-88
2021/10/12 06:03:40;;;;;;;11.00;4.60;;;;;;;8.63;100.00;101032.22;6149434;23;20084;-87
2021/10/12 06:06:07;;;;;;;9.55;4.20;;;;;;;8.63;100.00;101020.88;6175205;23;20024;-87
2021/10/12 06:08:34;;;;;;;2.25;1.08;;;;;;;8.63;100.00;101021.78;6171939;23;20052;-87
2021/10/12 06:11:02;;;;;;;4.72;1.67;;;;;;;8.60;100.00;101021.72;6154752;23;20059;-88
2021/10/12 06:13:30;;;;;;;5.72;2.85;;;;;;;8.58;100.00;101019.13;6127680;23;20481;-87
2021/10/12 06:15:58;;;;;;;8.48;3.03;;;;;;;8.60;100.00;101029.56;6150038;23;20036;-88
2021/10/12 06:18:26;;;;;;;6.40;2.97;;;;;;;8.63;100.00;101026.09;6150092;23;20231;-87
2021/10/12 06:20:54;;;;;;;4.07;1.70;;;;;;;8.64;100.00;101023.50;6203100;23;20032;-88
2021/10/12 06:23:23;;;;;;;3.95;1.60;;;;;;;8.67;100.00;101017.41;6158299;23;20017;-87
2021/10/12 06:25:51;;;;;;;3.30;1.42;;;;;;;8.70;100.00;101020.06;6180489;23;20025;-87
2021/10/12 06:28:18;;;;;;;2.40;2.08;;;;;;;8.72;100.00;101021.81;6176473;23;20090;-88
2021/10/12 06:30:46;;;;;;;4.65;1.48;;;;;;;8.73;100.00;101017.44;6173882;23;20032;-89
2021/10/12 06:33:13;;;;;;;4.75;1.40;;;;;;;8.76;100.00;101017.44;6199098;23;20080;-88
2021/10/12 06:35:41;;;;;;;2.28;1.40;;;;;;;8.81;100.00;101025.31;6178737;23;20099;-89
2021/10/12 06:38:08;;;;;;;6.05;1.83;;;;;;;8.83;100.00;101019.25;6195201;23;20011;-90
2021/10/12 06:40:36;;;;;;;3.30;2.40;;;;;;;8.86;100.00;101028.81;6215803;23;20020;-90
2021/10/12 06:43:04;;;;;;;3.58;3.05;;;;;;;8.85;100.00;101020.13;6176670;23;20020;-90
2021/10/12 06:45:31;;;;;;;3.08;1.58;;;;;;;8.88;100.00;101019.28;6154169;23;20051;-90
2021/10/12 06:47:58;;;;;;;3.72;1.88;;;;;;;8.90;100.00;101017.53;6175692;23;20031;-90
2021/10/12 06:50:26;;;;;;;2.10;1.88;;;;;;;8.89;100.00;101018.38;6154375;23;20017;-90
2021/10/12 06:52:53;;;;;;;3.47;1.25;;;;;;;8.86;100.00;101031.44;6155149;23;20071;-90
2021/10/12 06:55:20;;;;;;;1.30;1.20;;;;;;;8.84;100.00;101048.81;6186376;23;20013;-89
2021/10/12 06:57:47;;;;;;;2.03;1.63;;;;;;;8.80;100.00;101039.22;6193061;23;20020;-90
2021/10/12 07:00:17;;;;;;;1.63;0.90;;;;;;;8.79;100.00;101033.16;6181650;23;20020;-89
2021/10/12 07:02:45;;;;;;;3.03;1.20;;;;;;;8.77;100.00;101043.59;6179150;23;20023;-90
2021/10/12 07:07:54;;;;;;;1.88;1.27;;;;;;;8.80;100.00;101037.50;6180173;23;20400;-91
2021/10/12 07:10:21;;;;;;;3.72;2.17;;;;;;;8.82;100.00;101038.38;6130800;23;20020;-89
2021/10/12 07:12:48;;;;;;;3.13;1.42;;;;;;;8.80;100.00;101029.69;6174972;23;20024;-89
2021/10/12 07:15:15;;;;;;;2.38;1.10;;;;;;;8.81;100.00;101044.44;6175982;23;20486;-88
2021/10/12 07:17:42;;;;;;;3.08;1.65;;;;;;;8.78;100.00;101039.22;6153527;23;20035;-88
2021/10/12 07:20:09;;;;;;;4.22;1.65;;;;;;;8.80;100.00;101037.50;6182775;23;20059;-87
2021/10/12 07:22:37;;;;;;;4.07;1.50;;;;;;;8.85;100.00;101041.00;6177904;23;20027;-88
2021/10/12 07:25:06;;;;;;;4.22;1.98;;;;;;;8.89;100.00;101037.53;6150530;23;20020;-88
2021/10/12 07:27:34;;;;;;;2.55;1.23;;;;;;;8.92;100.00;101039.28;6179915;23;20043;-90
2021/10/12 07:30:02;;;;;;;3.47;2.03;;;;;;;8.88;100.00;101035.78;6151421;23;20035;-89
2021/10/12 07:32:28;;;;;;;8.52;3.80;;;;;;;8.84;100.00;101047.09;6153805;23;20111;-89
2021/10/12 07:34:55;;;;;;;10.57;4.47;;;;;;;8.77;100.00;101043.59;6153063;23;20017;-91
2021/10/12 07:37:21;;;;;;;9.02;4.22;;;;;;;8.70;100.00;101039.19;6181411;23;20071;-86
2021/10/12 07:39:48;;;;;;;3.83;1.63;;;;;;;8.65;100.00;101034.81;6185350;23;20020;-89
2021/10/12 07:42:15;;;;;;;1.95;1.52;;;;;;;8.63;100.00;101037.44;6184237;23;20012;-87
2021/10/12 07:44:42;;;;;;;6.22;2.95;;;;;;;8.66;100.00;101036.56;6185058;23;20029;-88
2021/10/12 07:47:10;;;;;;;3.72;2.15;;;;;;;8.68;100.00;101032.22;6176779;23;20115;-89
2021/10/12 07:49:41;;;;;;;5.10;2.20;;;;;;;8.70;100.00;101036.56;6185268;23;20118;-87
2021/10/12 07:52:08;;;;;;;5.13;2.40;;;;;;;8.72;100.00;101029.63;6156782;23;20787;-87
2021/10/12 07:54:45;;;;;;;3.55;2.03;;;;;;;8.76;100.00;101028.78;6177585;23;20099;-88
2021/10/12 07:57:13;;;;;;;2.35;2.03;;;;;;;8.80;100.00;101029.69;6178432;23;20024;-88
2021/10/12 07:59:40;;;;;;;2.55;2.20;;;;;;;8.82;100.00;101033.16;6175513;23;20582;-88
2021/10/12 08:02:07;;;;;;;2.40;1.83;;;;;;;8.85;100.00;101032.28;6177770;23;20031;-87
2021/10/12 08:04:34;;;;;;;4.05;1.63;;;;;;;8.86;100.00;101037.50;6153413;23;20020;-89
2021/10/12 08:07:01;;;;;;;1.98;1.67;;;;;;;8.91;100.00;101034.94;6178225;23;20025;-87
2021/10/12 08:09:27;;;;;;;16.27;4.47;;;;;;;8.98;100.00;101033.22;6175876;23;20036;-89
2021/10/12 08:11:54;;;;;;;4.47;1.88;;;;;;;9.05;100.00;101038.47;6173099;23;20017;-87
2021/10/12 08:14:22;;;;;;;5.63;2.13;;;;;;;9.11;100.00;101035.00;6174053;23;20091;-87
2021/10/12 08:16:49;;;;;;;5.28;1.27;;;;;;;9.15;100.00;101022.81;6149344;23;20534;-88
2021/10/12 08:19:15;;;;;;;5.93;1.45;;;;;;;9.22;100.00;101029.81;6178055;23;20013;-88
2021/10/12 08:21:42;;;;;;;6.57;1.88;;;;;;;9.27;100.00;101028.97;6186205;23;20051;-91
2021/10/12 08:24:11;;;;;;;4.25;2.00;;;;;;;9.35;100.00;101030.72;6194885;23;20469;-88
2021/10/12 08:26:42;;;;;;;1.00;0.98;;;;;;;9.40;100.00;101019.41;6185283;23;20024;-90
2021/10/12 08:29:09;;;;;;;1.90;1.33;;;;;;;9.53;100.00;101020.31;6201155;23;20028;-87
2021/10/12 08:31:36;;;;;;;14.18;3.25;;;;;;;9.68;100.00;101023.78;6153464;23;20161;-87
2021/10/12 08:34:03;;;;;;;7.60;2.58;;;;;;;9.89;100.00;101020.31;6200989;23;20047;-89
2021/10/12 08:36:29;;;;;;;2.85;2.17;;;;;;;10.06;100.00;101018.56;6153035;23;20111;-88
2021/10/12 08:38:57;;;;;;;6.18;2.20;;;;;;;10.17;100.00;101018.56;6179146;23;20027;-87
2021/10/12 08:41:30;;;;;;;2.30;1.35;;;;;;;10.26;100.00;101021.16;6175708;23;20140;-88
2021/10/12 08:43:58;;;;;;;5.60;1.55;;;;;;;10.37;100.00;101022.91;6178790;23;20020;-89
2021/10/12 08:46:27;;;;;;;3.38;1.10;;;;;;;10.40;100.00;101022.88;6152251;23;20040;-88
2021/10/12 08:49:00;;;;;;;5.35;0.85;;;;;;;10.50;100.00;101016.75;6177256;23;20027;-89
2021/10/12 08:59:42;;;;;;;1.10;0.80;;;;;;;10.53;100.00;101008.91;6153773;23;19928;-88
2021/10/12 09:09:59;;;;;;;1.70;0.45;;;;;;;10.63;100.00;101006.25;6177940;22;20035;-91
2021/10/12 09:17:39;;;;;;;2.85;0.55;;;;;;;10.98;100.00;101010.50;6183758;23;20033;-88
2021/10/12 09:20:12;;;;;;;3.67;1.25;;;;;;;10.99;100.00;101009.59;6151536;23;20701;-87
2021/10/12 09:23:10;;;;;;;1.93;0.40;;;;;;;11.02;100.00;101005.22;6172348;23;20424;-89
2021/10/12 09:25:46;;;;;;;2.08;0.68;;;;;;;11.18;100.00;101011.22;6125815;23;20448;-89
2021/10/12 09:28:28;;;;;;;3.35;0.63;;;;;;;11.41;100.00;101011.09;6144918;23;20044;-88
2021/10/12 09:30:58;;;;;;;4.00;0.70;;;;;;;11.51;100.00;101016.25;6147859;23;20399;-87
2021/10/12 09:33:27;;;;;;;2.85;0.55;;;;;;;11.44;99.44;101017.22;6119988;23;20474;-87
2021/10/12 09:35:53;;;;;;;4.47;0.60;;;;;;;11.51;100.00;101016.25;6122982;23;20025;-89
2021/10/12 09:38:21;;;;;;;5.00;0.70;;;;;;;11.64;100.00;101017.06;6147518;23;20044;-88
2021/10/12 09:40:49;;;;;;;0.70;0.50;;;;;;;11.53;99.40;101022.38;6121362;23;20683;-88
2021/10/12 09:43:21;;;;;;;6.88;1.67;;;;;;;11.46;99.58;101015.44;6123291;23;20028;-87
2021/10/12 09:45:49;;;;;;;5.78;0.75;;;;;;;11.47;98.75;101018.06;6144229;23;20029;-88
2021/10/12 09:48:36;;;;;;;4.90;0.63;;;;;;;11.53;98.02;101014.53;6146967;23;20040;-88
2021/10/12 09:51:14;;;;;;;4.72;1.48;;;;;;;11.51;97.27;101014.53;6145678;23;20420;-89
2021/10/12 09:53:44;;;;;;;8.05;1.00;;;;;;;11.52;97.74;101007.53;6147096;23;20021;-87
2021/10/12 09:56:12;;;;;;;5.65;1.75;;;;;;;11.67;96.93;101004.78;6129367;23;20032;-90
2021/10/12 09:58:45;;;;;;;3.78;0.82;;;;;;;11.83;96.64;101010.78;6155934;23;20021;-87
2021/10/12 10:01:12;;;;;;;6.87;1.20;;;;;;;12.03;95.37;100997.53;6124543;23;20034;-86
2021/10/12 10:03:39;;;;;;;6.00;1.08;;;;;;;12.06;93.87;101001.88;6120961;23;20040;-85
2021/10/12 10:06:15;;;;;;;2.60;0.60;;;;;;;11.87;93.94;100994.13;6149772;23;20103;-86
2021/10/12 10:11:32;;;;;;;4.03;1.23;;;;;;;11.86;94.71;100991.53;6191247;23;20009;-86
2021/10/12 10:14:05;;;;;;;2.05;0.80;;;;;;;12.04;92.77;100995.75;6116244;23;20133;-87
2021/10/12 10:16:33;;;;;;;5.28;1.23;;;;;;;12.09;90.22;100988.72;6106444;23;20534;-83
2021/10/12 10:19:01;;;;;;;2.95;1.00;;;;;;;12.02;89.96;100994.91;6130151;23;20456;-86
2021/10/12 10:21:28;;;;;;;6.80;2.45;;;;;;;12.18;90.65;100995.63;6128655;23;20021;-86
2021/10/12 10:24:07;;;;;;;3.83;1.20;;;;;;;12.39;89.46;100994.53;6129439;23;20126;-85
2021/10/12 10:26:50;;;;;;;13.57;2.20;;;;;;;12.47;86.40;100984.81;6132740;23;20092;-88
2021/10/12 10:29:38;;;;;;;5.95;1.30;;;;;;;12.38;86.59;100980.56;6155498;23;20025;-86
2021/10/12 10:32:25;;;;;;;4.40;1.30;;;;;;;12.22;85.02;100971.94;6149596;23;20025;-83
2021/10/12 10:35:15;;;;;;;5.70;0.82;;;;;;;11.92;85.00;100983.59;6141092;23;20028;-85
2021/10/12 10:37:43;;;;;;;5.13;0.93;;;;;;;11.70;88.83;100975.06;6106026;23;20031;-86
2021/10/12 10:40:34;;;;;;;2.40;1.10;;;;;;;11.55;88.96;100981.28;6128688;23;20471;-85
2021/10/12 10:43:02;;;;;;;6.90;1.60;;;;;;;11.59;89.72;100980.41;6151838;23;20107;-85
2021/10/12 10:45:48;;;;;;;5.63;2.65;;;;;;;11.69;89.68;100979.44;6111368;23;20449;-86
2021/10/12 10:48:19;;;;;;;6.13;2.13;;;;;;;11.81;89.12;100981.09;6128742;23;20099;-86
2021/10/12 10:50:45;;;;;;;4.00;1.05;;;;;;;11.92;88.83;100981.84;6153393;23;20028;-88
2021/10/12 10:53:13;;;;;;;3.03;1.67;;;;;;;11.88;88.29;100980.13;6128852;23;20052;-83
2021/10/12 10:56:00;;;;;;;1.23;0.90;;;;;;;11.78;89.27;100975.84;6128296;23;20079;-82
2021/10/12 10:58:26;;;;;;;4.13;1.10;;;;;;;11.71;89.75;100982.91;6130403;23;20024;-84
2021/10/12 11:00:56;;;;;;;3.13;1.13;;;;;;;11.66;90.22;100983.84;6150736;23;20351;-89
2021/10/12 11:03:31;;;;;;;2.20;0.75;;;;;;;11.68;89.85;100977.69;6126142;23;20028;-83
2021/10/12 11:05:59;;;;;;;5.00;1.00;;;;;;;11.74;88.94;100976.75;6152447;23;20017;-85
2021/10/12 11:08:28;;;;;;;4.75;0.95;;;;;;;11.97;89.29;100976.59;6127075;23;20024;-86
2021/10/12 11:10:58;;;;;;;2.58;1.08;;;;;;;12.36;87.31;100968.34;6147062;23;20063;-83
2021/10/12 11:13:38;;;;;;;4.03;1.05;;;;;;;12.72;83.94;100968.75;6121505;23;20420;-85
2021/10/12 11:16:18;;;;;;;3.95;0.80;;;;;;;12.83;81.90;100974.75;6117110;23;20033;-82
2021/10/12 11:18:47;;;;;;;3.05;0.98;;;;;;;12.80;81.82;100968.66;6116732;23;20060;-88
2021/10/12 11:21:20;;;;;;;4.35;1.33;;;;;;;12.85;82.21;100964.22;6093462;23;20715;-85
2021/10/12 11:23:54;;;;;;;8.52;1.10;;;;;;;12.95;81.54;100963.19;6093270;23;20025;-82
2021/10/12 11:26:24;;;;;;;3.25;1.05;;;;;;;13.16;80.20;100958.53;6116304;23;20017;-83
2021/10/12 11:28:57;;;;;;;4.13;0.70;;;;;;;13.39;79.57;100960.84;6092509;23;20025;-81
2021/10/12 11:31:27;;;;;;;5.97;0.95;;;;;;;13.55;77.72;100959.69;6104529;23;20092;-83
2021/10/12 11:34:02;;;;;;;2.05;1.20;;;;;;;13.73;77.05;100960.28;6091614;23;20026;-85
2021/10/12 11:36:33;;;;;;;3.97;0.95;;;;;;;14.04;76.47;100960.59;6093374;23;20032;-84
2021/10/12 11:39:08;;;;;;;4.05;0.88;;;;;;;14.39;74.75;100952.91;6093770;23;20105;-83
2021/10/12 11:41:38;;;;;;;9.95;1.30;;;;;;;14.68;73.53;100954.16;6116682;23;20063;-81
2021/10/12 11:44:21;;;;;;;7.45;2.35;;;;;;;14.82;71.73;100954.72;6091283;23;20030;-84
2021/10/12 11:46:50;;;;;;;5.75;1.42;;;;;;;14.85;72.19;100954.63;6092719;23;20076;-85
2021/10/12 11:49:21;;;;;;;3.70;1.00;;;;;;;14.64;70.59;100952.44;6092734;23;20113;-87
2021/10/12 11:51:50;;;;;;;3.40;0.88;;;;;;;14.38;72.47;100957.31;6092811;23;20109;-85
2021/10/12 11:54:26;;;;;;;6.30;1.02;;;;;;;14.22;73.41;100950.63;6090621;23;20034;-84
2021/10/12 11:56:53;;;;;;;3.30;0.95;;;;;;;14.12;74.15;100952.56;6092647;23;20037;-82
2021/10/12 11:59:34;;;;;;;4.10;0.93;;;;;;;14.15;73.21;100949.88;6118114;23;20089;-88